createdAt,value
2022-11-28T00:01:36.617Z,76.50
2022-11-28T00:04:05.767Z,73.80
2022-11-28T00:06:41.390Z,76.40
2022-11-28T00:09:10.048Z,54.30
2022-11-28T00:11:42.411Z,62.00
2022-11-28T00:14:11.014Z,60.90
2022-11-28T00:16:39.170Z,57.40
2022-11-28T00:19:07.950Z,58.60
2022-11-28T00:21:35.821Z,71.60
2022-11-28T00:24:04.309Z,69.90
2022-11-28T00:26:38.314Z,77.20
2022-11-28T00:29:07.403Z,70.80
2022-11-28T00:31:42.695Z,67.60
2022-11-28T00:34:13.706Z,63.30
2022-11-28T00:36:44.850Z,64.30
2022-11-28T00:39:13.814Z,58.90
2022-11-28T00:41:42.548Z,59.00
2022-11-28T00:44:10.848Z,67.20
2022-11-28T00:46:38.742Z,66.00
2022-11-28T00:49:06.711Z,71.10
2022-11-28T00:51:35.467Z,79.80
2022-11-28T00:54:05.923Z,56.50
2022-11-28T00:56:39.599Z,60.10
2022-11-28T00:59:07.790Z,61.90
2022-11-28T01:01:44.755Z,64.90
2022-11-28T01:04:15.663Z,61.90
2022-11-28T01:06:46.548Z,68.20
2022-11-28T01:09:18.306Z,55.90
2022-11-28T01:11:49.250Z,60.80
2022-11-28T01:14:19.515Z,58.60
2022-11-28T01:16:47.631Z,65.70
2022-11-28T01:19:16.376Z,69.80
2022-11-28T01:21:44.853Z,71.90
2022-11-28T01:24:13.501Z,63.00
2022-11-28T01:26:42.892Z,61.20
2022-11-28T01:29:11.682Z,67.10
2022-11-28T01:31:41.046Z,81.30
2022-11-28T01:34:09.051Z,77.20
2022-11-28T01:36:36.912Z,60.00
2022-11-28T01:39:04.776Z,76.20
2022-11-28T01:41:32.884Z,79.70
2022-11-28T01:44:15.981Z,84.40
2022-11-28T01:46:44.473Z,77.50
2022-11-28T01:49:15.212Z,69.60
2022-11-28T01:51:48.782Z,62.10
2022-11-28T01:54:20.746Z,69.60
2022-11-28T01:56:54.550Z,65.70
2022-11-28T01:59:24.463Z,67.90
2022-11-28T02:01:52.472Z,66.00
2022-11-28T02:04:20.610Z,60.30
2022-11-28T02:06:48.578Z,58.70
2022-11-28T02:09:17.361Z,59.00
2022-11-28T02:11:51.263Z,57.20
2022-11-28T02:14:34.183Z,54.30
2022-11-28T02:17:20.686Z,62.80
2022-11-28T02:20:22.754Z,63.10
2022-11-28T02:23:19.598Z,64.10
2022-11-28T02:26:29.037Z,56.50
2022-11-28T02:29:12.914Z,67.00
2022-11-28T02:32:22.317Z,61.00
2022-11-28T02:35:00.125Z,71.50
2022-11-28T02:37:50.512Z,64.90
2022-11-28T02:40:26.874Z,63.00
2022-11-28T02:43:06.927Z,58.20
2022-11-28T02:45:35.001Z,58.30
2022-11-28T02:48:12.954Z,64.40
2022-11-28T02:50:51.411Z,65.10
2022-11-28T02:53:23.884Z,56.30
2022-11-28T02:55:52.984Z,63.70
2022-11-28T02:58:20.845Z,67.70
2022-11-28T03:00:51.231Z,62.60
2022-11-28T03:03:28.496Z,62.00
2022-11-28T03:06:07.277Z,66.60
2022-11-28T03:09:00.637Z,62.60
2022-11-28T03:11:59.123Z,58.80
2022-11-28T03:14:32.825Z,60.00
2022-11-28T03:17:15.844Z,53.20
2022-11-28T03:20:01.673Z,62.00
2022-11-28T03:22:35.332Z,56.80
2022-11-28T03:25:12.721Z,59.60
2022-11-28T03:27:47.961Z,54.40
2022-11-28T03:30:27.396Z,57.10
2022-11-28T03:32:58.150Z,59.90
2022-11-28T03:35:31.159Z,52.80
2022-11-28T03:38:06.151Z,50.90
2022-11-28T03:40:42.823Z,59.20
2022-11-28T03:43:14.990Z,51.10
2022-11-28T03:45:49.305Z,48.40
2022-11-28T03:48:26.594Z,61.60
2022-11-28T03:51:02.866Z,62.00
2022-11-28T03:53:50.991Z,55.10
2022-11-28T03:56:26.024Z,59.10
2022-11-28T03:59:26.767Z,58.70
2022-11-28T04:02:33.063Z,53.10
2022-11-28T04:05:09.903Z,54.60
2022-11-28T04:08:16.685Z,57.10
2022-11-28T04:10:59.716Z,57.50
2022-11-28T04:13:41.837Z,54.10
2022-11-28T04:16:20.173Z,54.50
2022-11-28T04:19:13.409Z,48.60
2022-11-28T04:21:51.068Z,50.90
2022-11-28T04:24:25.594Z,50.30
2022-11-28T04:27:00.727Z,52.20
2022-11-28T04:29:34.430Z,58.30
2022-11-28T04:32:03.783Z,57.90
2022-11-28T04:34:34.973Z,52.70
2022-11-28T04:37:09.724Z,53.50
2022-11-28T04:39:41.969Z,52.90
2022-11-28T04:42:23.865Z,52.00
2022-11-28T04:45:02.939Z,48.10
2022-11-28T04:47:31.027Z,59.20
2022-11-28T04:49:59.340Z,60.10
2022-11-28T04:52:29.968Z,53.60
2022-11-28T04:55:05.207Z,57.20
2022-11-28T04:57:37.994Z,55.20
2022-11-28T05:00:11.173Z,58.30
2022-11-28T05:02:42.016Z,54.30
2022-11-28T05:05:13.877Z,51.10
2022-11-28T05:07:42.026Z,51.80
2022-11-28T05:10:12.676Z,61.80
2022-11-28T05:12:40.848Z,47.30
2022-11-28T05:15:09.845Z,54.50
2022-11-28T05:17:42.133Z,64.80
2022-11-28T05:20:11.216Z,59.30
2022-11-28T05:22:39.173Z,51.00
2022-11-28T05:25:07.599Z,51.40
2022-11-28T05:27:35.929Z,58.10
2022-11-28T05:30:06.299Z,55.40
2022-11-28T05:32:34.321Z,57.40
2022-11-28T05:35:02.741Z,58.00
2022-11-28T05:37:30.670Z,55.70
2022-11-28T05:39:58.737Z,50.40
2022-11-28T05:42:28.653Z,58.20
2022-11-28T05:44:56.524Z,55.00
2022-11-28T05:47:25.409Z,63.20
2022-11-28T05:49:53.169Z,55.90
2022-11-28T05:52:21.040Z,52.50
2022-11-28T05:54:48.846Z,50.70
2022-11-28T05:57:16.665Z,60.90
2022-11-28T05:59:44.757Z,57.80
2022-11-28T06:02:13.063Z,65.00
2022-11-28T06:04:42.179Z,59.60
2022-11-28T06:07:10.104Z,57.00
2022-11-28T06:09:38.042Z,55.50
2022-11-28T06:12:06.445Z,57.40
2022-11-28T06:14:34.418Z,50.80
2022-11-28T06:17:02.398Z,54.80
2022-11-28T06:19:30.319Z,50.00
2022-11-28T06:21:58.198Z,57.00
2022-11-28T06:24:26.268Z,50.20
2022-11-28T06:26:55.250Z,52.60
2022-11-28T06:29:23.316Z,52.50
2022-11-28T06:31:51.215Z,50.20
2022-11-28T06:34:19.150Z,50.10
2022-11-28T06:36:46.969Z,46.30
2022-11-28T06:39:16.831Z,48.80
2022-11-28T06:41:45.267Z,48.50
2022-11-28T06:44:14.882Z,47.00
2022-11-28T06:46:43.907Z,52.40
2022-11-28T06:49:15.324Z,61.60
2022-11-28T06:51:43.630Z,53.90
2022-11-28T06:54:12.066Z,53.40
2022-11-28T06:56:41.415Z,62.10
2022-11-28T06:59:12.026Z,54.20
2022-11-28T07:01:39.970Z,54.30
2022-11-28T07:04:07.876Z,58.60
2022-11-28T07:06:35.739Z,55.50
2022-11-28T07:09:04.461Z,52.20
2022-11-28T07:11:32.851Z,60.40
2022-11-28T07:14:02.417Z,58.70
2022-11-28T07:16:33.339Z,58.80
2022-11-28T07:19:01.351Z,52.80
2022-11-28T07:21:29.920Z,47.40
2022-11-28T07:23:59.530Z,52.40
2022-11-28T07:26:27.834Z,53.70
2022-11-28T07:28:58.386Z,53.30
2022-11-28T07:31:31.768Z,55.10
2022-11-28T07:34:03.691Z,56.10
2022-11-28T07:36:32.533Z,52.70
2022-11-28T07:39:02.673Z,57.40
2022-11-28T07:41:31.013Z,60.40
2022-11-28T07:44:01.847Z,51.50
2022-11-28T07:46:31.629Z,58.20
2022-11-28T07:49:00.592Z,49.70
2022-11-28T07:51:31.830Z,55.30
2022-11-28T07:54:01.662Z,56.20
2022-11-28T07:56:57.110Z,61.00
2022-11-28T07:59:20.219Z,57.70
2022-11-28T08:01:48.971Z,58.90
2022-11-28T08:04:16.996Z,60.30
2022-11-28T08:06:45.138Z,67.20
2022-11-28T08:09:13.003Z,60.30
2022-11-28T08:11:41.835Z,59.30
2022-11-28T08:14:09.974Z,60.70
2022-11-28T08:16:41.418Z,60.70
2022-11-28T08:19:09.482Z,59.30
2022-11-28T08:21:38.167Z,58.30
2022-11-28T08:24:08.174Z,49.90
2022-11-28T08:26:37.492Z,55.80
2022-11-28T08:29:05.551Z,53.40
2022-11-28T08:31:36.695Z,57.40
2022-11-28T08:34:10.399Z,58.00
2022-11-28T08:36:39.315Z,55.10
2022-11-28T08:39:24.356Z,51.90
2022-11-28T08:41:57.450Z,55.80
2022-11-28T08:44:27.256Z,47.70
2022-11-28T08:46:55.357Z,51.50
2022-11-28T08:49:23.290Z,54.00
2022-11-28T08:51:51.161Z,48.10
2022-11-28T08:54:19.128Z,53.00
2022-11-28T08:56:50.031Z,49.60
2022-11-28T08:59:18.132Z,44.60
2022-11-28T09:01:46.296Z,54.20
2022-11-28T09:04:14.643Z,50.20
2022-11-28T09:06:42.667Z,48.40
2022-11-28T09:09:10.718Z,59.70
2022-11-28T09:11:39.046Z,49.60
2022-11-28T09:14:07.677Z,47.80
2022-11-28T09:16:35.707Z,50.70
2022-11-28T09:19:04.128Z,51.80
2022-11-28T09:21:32.001Z,46.20
2022-11-28T09:24:00.080Z,46.60
2022-11-28T09:26:28.032Z,48.60
2022-11-28T09:28:56.109Z,48.90
2022-11-28T09:31:24.505Z,47.50
2022-11-28T09:33:52.533Z,46.70
2022-11-28T09:36:22.678Z,53.40
2022-11-28T09:38:51.253Z,40.50
2022-11-28T09:41:50.793Z,40.70
2022-11-28T09:44:31.148Z,38.00
2022-11-28T09:47:09.225Z,46.20
2022-11-28T09:49:41.586Z,42.50
2022-11-28T09:52:26.840Z,43.90
2022-11-28T09:55:11.115Z,44.30
2022-11-28T09:57:49.750Z,41.40
2022-11-28T10:00:22.931Z,40.80
2022-11-28T10:03:12.223Z,40.60
2022-11-28T10:05:54.908Z,36.50
2022-11-28T10:09:07.934Z,34.80
2022-11-28T10:11:38.873Z,44.10
2022-11-28T10:14:59.675Z,38.60
2022-11-28T10:17:27.541Z,35.80
2022-11-28T10:20:31.097Z,36.40
2022-11-28T10:23:13.549Z,40.30
2022-11-28T10:25:51.144Z,36.90
2022-11-28T10:28:33.446Z,33.50
2022-11-28T10:31:15.869Z,36.90
2022-11-28T10:33:53.978Z,36.90
2022-11-28T10:36:27.580Z,33.80
2022-11-28T10:38:55.526Z,34.00
2022-11-28T10:41:40.618Z,27.70
2022-11-28T10:44:35.290Z,29.60
2022-11-28T10:47:06.707Z,28.20
2022-11-28T10:49:46.066Z,25.90
2022-11-28T10:52:46.502Z,26.30
2022-11-28T10:55:45.095Z,31.10
2022-11-28T10:58:22.064Z,29.30
2022-11-28T11:00:57.703Z,29.40
2022-11-28T11:03:30.086Z,33.90
2022-11-28T11:05:57.962Z,28.30
2022-11-28T11:08:29.200Z,23.20
2022-11-28T11:11:06.963Z,25.20
2022-11-28T11:13:55.732Z,30.20
2022-11-28T11:16:24.108Z,23.70
2022-11-28T11:18:55.150Z,23.70
2022-11-28T11:21:28.010Z,23.80
2022-11-28T11:24:21.805Z,27.40
2022-11-28T11:26:50.173Z,21.70
2022-11-28T11:29:37.028Z,26.40
2022-11-28T11:32:16.862Z,22.50
2022-11-28T11:34:46.873Z,26.20
2022-11-28T11:37:33.905Z,21.40
2022-11-28T11:40:03.632Z,25.10
2022-11-28T11:42:33.286Z,24.40
2022-11-28T11:45:27.538Z,24.30
2022-11-28T11:47:55.867Z,25.30
2022-11-28T11:50:27.292Z,28.80
2022-11-28T11:53:10.639Z,25.50
2022-11-28T11:55:51.514Z,28.80
2022-11-28T11:58:23.782Z,26.50
2022-11-28T12:00:56.459Z,30.90
2022-11-28T12:03:45.684Z,29.70
2022-11-28T12:06:21.392Z,26.80
2022-11-28T12:08:54.936Z,26.20
2022-11-28T12:11:30.010Z,25.50
2022-11-28T12:14:16.234Z,25.00
2022-11-28T12:17:25.539Z,19.80
2022-11-28T12:20:06.415Z,21.50
2022-11-28T12:23:00.800Z,22.90
2022-11-28T12:25:47.407Z,25.20
2022-11-28T12:28:21.104Z,22.20
2022-11-28T12:30:52.014Z,19.60
2022-11-28T12:33:39.368Z,23.40
2022-11-28T12:36:12.083Z,23.50
2022-11-28T12:38:47.791Z,24.10
2022-11-28T12:41:18.853Z,21.40
2022-11-28T12:44:28.850Z,21.30
2022-11-28T12:47:17.445Z,20.00
2022-11-28T12:49:57.506Z,22.00
2022-11-28T12:53:06.486Z,21.50
2022-11-28T12:55:46.079Z,21.80
2022-11-28T12:58:51.505Z,25.00
2022-11-28T13:01:38.300Z,19.00
2022-11-28T13:04:42.695Z,23.70
2022-11-28T13:07:15.700Z,24.20
2022-11-28T13:10:13.184Z,19.70
2022-11-28T13:12:45.914Z,23.50
2022-11-28T13:15:18.539Z,25.20
2022-11-28T13:17:52.238Z,22.70
2022-11-28T13:20:43.075Z,24.00
2022-11-28T13:23:20.998Z,22.50
2022-11-28T13:26:14.633Z,23.60
2022-11-28T13:28:48.531Z,26.30
2022-11-28T13:31:33.188Z,26.00
2022-11-28T13:34:01.558Z,23.80
2022-11-28T13:39:40.281Z,25.50
2022-11-28T13:48:57.438Z,29.50
2022-11-28T13:51:31.606Z,28.00
2022-11-28T13:54:42.007Z,32.10
2022-11-28T13:57:26.389Z,23.60
2022-11-28T14:00:25.079Z,25.00
2022-11-28T14:03:00.696Z,29.40
2022-11-28T14:05:41.709Z,29.40
2022-11-28T14:08:28.180Z,28.40
2022-11-28T14:11:27.454Z,27.80
2022-11-28T14:14:43.625Z,33.10
2022-11-28T14:17:11.890Z,33.10
2022-11-28T14:19:59.296Z,27.80
2022-11-28T14:23:01.667Z,28.70
2022-11-28T14:25:39.673Z,33.00
2022-11-28T14:28:27.501Z,29.90
2022-11-28T14:31:12.488Z,33.90
2022-11-28T14:33:44.231Z,32.00
2022-11-28T14:36:23.977Z,34.80
2022-11-28T14:39:12.227Z,33.00
2022-11-28T14:42:05.178Z,35.70
2022-11-28T14:44:52.614Z,36.40
2022-11-28T14:47:32.046Z,41.10
2022-11-28T14:50:05.708Z,41.60
2022-11-28T14:52:39.446Z,33.50
2022-11-28T14:55:08.020Z,36.50
2022-11-28T14:57:38.973Z,34.70
2022-11-28T15:00:28.528Z,35.40
2022-11-28T15:03:40.833Z,36.80
2022-11-28T15:06:25.295Z,35.00
2022-11-28T15:09:08.721Z,37.30
2022-11-28T15:11:46.722Z,40.20
2022-11-28T15:14:24.929Z,38.00
2022-11-28T15:16:57.813Z,42.10
2022-11-28T15:19:44.237Z,40.60
2022-11-28T15:22:41.584Z,34.00
2022-11-28T15:25:18.754Z,41.80
2022-11-28T15:27:46.946Z,37.90
2022-11-28T15:30:18.096Z,41.10
2022-11-28T15:32:47.021Z,46.10
2022-11-28T15:35:18.531Z,37.90
2022-11-28T15:37:50.755Z,37.50
2022-11-28T15:40:31.485Z,45.10
2022-11-28T15:43:00.572Z,37.10
2022-11-28T15:45:32.408Z,42.40
2022-11-28T15:48:00.379Z,42.40
2022-11-28T15:50:31.106Z,34.50
2022-11-28T15:53:16.888Z,45.30
2022-11-28T15:55:45.489Z,35.00
2022-11-28T15:58:20.605Z,41.00
2022-11-28T16:00:55.256Z,44.80
2022-11-28T16:03:26.677Z,41.00
2022-11-28T16:05:56.188Z,37.90
2022-11-28T16:08:32.566Z,39.30
2022-11-28T16:11:03.695Z,33.80
2022-11-28T16:13:33.639Z,38.00
2022-11-28T16:16:04.363Z,41.10
2022-11-28T16:18:32.719Z,40.50
2022-11-28T16:21:02.012Z,33.20
2022-11-28T16:23:35.900Z,43.70
2022-11-28T16:26:20.681Z,45.10
2022-11-28T16:29:11.693Z,38.40
2022-11-28T16:31:40.058Z,39.70
2022-11-28T16:34:13.112Z,34.20
2022-11-28T16:36:45.859Z,43.60
2022-11-28T16:39:17.910Z,41.60
2022-11-28T16:41:54.984Z,38.50
2022-11-28T16:44:24.995Z,32.30
2022-11-28T16:46:58.428Z,39.90
2022-11-28T16:49:38.646Z,30.00
2022-11-28T16:52:21.670Z,39.20
2022-11-28T16:54:59.502Z,40.70
2022-11-28T16:57:45.696Z,38.60
2022-11-28T17:00:13.834Z,41.80
2022-11-28T17:02:41.697Z,39.20
2022-11-28T17:05:09.972Z,34.80
2022-11-28T17:07:38.632Z,34.10
2022-11-28T17:10:07.420Z,36.50
2022-11-28T17:12:38.997Z,32.60
2022-11-28T17:17:38.622Z,32.40
2022-11-28T17:20:07.509Z,39.50
2022-11-28T17:22:41.205Z,37.20
2022-11-28T17:25:19.214Z,33.80
2022-11-28T17:27:50.462Z,33.10
2022-11-28T17:30:19.710Z,37.20
2022-11-28T17:32:48.152Z,33.10
2022-11-28T17:35:23.479Z,36.40
2022-11-28T17:37:51.547Z,38.20
2022-11-28T17:40:34.671Z,36.40
2022-11-28T17:43:03.692Z,35.80
2022-11-28T17:45:35.186Z,39.90
2022-11-28T17:48:03.185Z,39.50
2022-11-28T17:50:31.182Z,45.00
2022-11-28T17:52:59.222Z,46.00
2022-11-28T17:55:27.087Z,35.60
2022-11-28T17:57:54.958Z,39.20
2022-11-28T18:00:23.178Z,41.00
2022-11-28T18:02:51.120Z,37.30
2022-11-28T18:05:19.123Z,39.70
2022-11-28T18:07:47.135Z,49.20
2022-11-28T18:10:15.304Z,38.20
2022-11-28T18:12:43.219Z,38.20
2022-11-28T18:15:11.176Z,34.70
2022-11-28T18:17:39.005Z,39.00
2022-11-28T18:20:07.838Z,38.10
2022-11-28T18:22:35.617Z,57.40
2022-11-28T18:25:03.594Z,45.80
2022-11-28T18:27:31.427Z,43.80
2022-11-28T18:29:59.275Z,37.10
2022-11-28T18:32:27.329Z,44.10
2022-11-28T18:34:55.291Z,39.80
2022-11-28T18:37:23.209Z,37.50
2022-11-28T18:39:51.252Z,40.20
2022-11-28T18:42:19.344Z,37.00
2022-11-28T18:44:47.924Z,37.10
2022-11-28T18:47:17.349Z,35.40
2022-11-28T18:49:45.427Z,40.10
2022-11-28T18:52:13.632Z,40.50
2022-11-28T18:54:41.765Z,45.60
2022-11-28T18:57:09.756Z,43.00
2022-11-28T18:59:37.701Z,44.10
2022-11-28T19:02:05.902Z,38.60
2022-11-28T19:04:33.844Z,39.40
2022-11-28T19:07:02.633Z,30.20
2022-11-28T19:09:35.633Z,40.40
2022-11-28T19:12:04.878Z,43.40
2022-11-28T19:14:32.887Z,40.80
2022-11-28T19:17:02.291Z,40.00
2022-11-28T19:19:30.890Z,40.40
2022-11-28T19:21:58.734Z,48.70
2022-11-28T19:24:26.702Z,44.10
2022-11-28T19:26:54.568Z,51.90
2022-11-28T19:29:22.752Z,52.50
2022-11-28T19:31:50.773Z,45.70
2022-11-28T19:34:19.342Z,44.40
2022-11-28T19:36:50.129Z,43.80
2022-11-28T19:39:19.420Z,46.10
2022-11-28T19:41:47.612Z,40.90
2022-11-28T19:44:15.768Z,49.70
2022-11-28T19:46:44.396Z,52.70
2022-11-28T19:49:21.641Z,49.70
2022-11-28T19:51:50.716Z,53.50
2022-11-28T19:54:20.634Z,57.40
2022-11-28T19:56:49.448Z,51.80
2022-11-28T19:59:17.649Z,57.30
2022-11-28T20:01:49.055Z,57.40
2022-11-28T20:04:17.035Z,57.30
2022-11-28T20:06:44.946Z,56.00
2022-11-28T20:09:14.107Z,54.70
2022-11-28T20:11:43.222Z,57.00
2022-11-28T20:14:14.542Z,63.20
2022-11-28T20:16:43.720Z,66.40
2022-11-28T20:19:14.316Z,58.40
2022-11-28T20:21:42.223Z,48.70
2022-11-28T20:24:10.906Z,57.50
2022-11-28T20:26:42.668Z,52.10
2022-11-28T20:29:14.218Z,58.40
2022-11-28T20:31:45.716Z,54.70
2022-11-28T20:34:14.938Z,55.00
2022-11-28T20:36:43.851Z,48.00
2022-11-28T20:39:12.435Z,46.80
2022-11-28T20:41:40.332Z,45.20
2022-11-28T20:44:08.677Z,45.30
2022-11-28T20:46:36.850Z,44.10
2022-11-28T20:49:06.973Z,40.70
2022-11-28T20:51:35.961Z,41.70
2022-11-28T20:54:06.183Z,40.80
2022-11-28T20:57:05.220Z,33.70
2022-11-28T20:59:27.308Z,42.40
2022-11-28T21:01:55.375Z,39.60
2022-11-28T21:04:23.361Z,40.20
2022-11-28T21:06:51.518Z,37.30
2022-11-28T21:09:20.634Z,41.30
2022-11-28T21:11:58.433Z,48.80
2022-11-28T21:14:28.940Z,43.00
2022-11-28T21:16:58.652Z,52.80
2022-11-28T21:19:27.332Z,46.90
2022-11-28T21:21:55.411Z,51.30
2022-11-28T21:24:23.477Z,44.20
2022-11-28T21:26:54.307Z,49.20
2022-11-28T21:29:24.637Z,47.70
2022-11-28T21:31:53.413Z,53.40
2022-11-28T21:34:22.528Z,43.40
2022-11-28T21:36:50.648Z,47.90
2022-11-28T21:39:20.467Z,49.50
2022-11-28T21:41:48.885Z,43.20
2022-11-28T21:44:17.333Z,37.80
2022-11-28T21:46:45.157Z,43.10
2022-11-28T21:49:12.960Z,41.30
2022-11-28T21:51:41.131Z,41.20
2022-11-28T21:54:10.867Z,38.60
2022-11-28T21:56:39.238Z,42.40
2022-11-28T21:59:07.199Z,42.90
2022-11-28T22:01:35.052Z,44.90
2022-11-28T22:04:03.359Z,34.30
2022-11-28T22:06:31.965Z,39.20
2022-11-28T22:09:08.314Z,38.70
2022-11-28T22:11:37.439Z,47.60
2022-11-28T22:14:05.692Z,34.30
2022-11-28T22:16:33.704Z,44.40
2022-11-28T22:19:01.858Z,43.60
2022-11-28T22:24:18.149Z,42.80
2022-11-28T22:26:46.101Z,44.20
2022-11-28T22:29:14.625Z,42.60
2022-11-28T22:31:42.491Z,35.20
2022-11-28T22:34:10.710Z,37.90
2022-11-28T22:36:38.987Z,41.30
2022-11-28T22:39:06.850Z,41.30
2022-11-28T22:41:34.668Z,40.80
2022-11-28T22:44:04.120Z,34.40
2022-11-28T22:46:33.017Z,25.80
2022-11-28T22:49:01.745Z,39.20
2022-11-28T22:51:30.613Z,37.70
2022-11-28T22:54:01.340Z,38.40
2022-11-28T22:56:32.054Z,43.10
2022-11-28T22:59:00.834Z,35.40
2022-11-28T23:01:30.969Z,30.00
2022-11-28T23:03:59.601Z,33.60
2022-11-28T23:06:30.471Z,36.90
2022-11-28T23:09:00.190Z,28.20
2022-11-28T23:11:30.524Z,26.90
2022-11-28T23:13:58.885Z,30.60
2022-11-28T23:16:30.074Z,50.70
2022-11-28T23:19:01.373Z,43.90
2022-11-28T23:21:32.011Z,38.10
2022-11-28T23:24:00.081Z,30.80
2022-11-28T23:26:30.603Z,28.50
2022-11-28T23:29:00.744Z,31.70
2022-11-28T23:31:31.731Z,32.30
2022-11-28T23:34:00.548Z,44.50
2022-11-28T23:36:29.747Z,33.30
2022-11-28T23:39:00.746Z,30.10
2022-11-28T23:41:29.831Z,29.00
2022-11-28T23:43:57.948Z,28.90
2022-11-28T23:46:26.779Z,29.70
2022-11-28T23:48:54.705Z,32.20
2022-11-28T23:51:25.767Z,28.90
2022-11-28T23:53:54.065Z,34.00
2022-11-28T23:56:25.165Z,36.80
2022-11-28T23:58:55.076Z,24.50
